createdAt,value
2019-03-08T00:00:09.993Z,68.47
2019-03-08T00:02:38.388Z,67.74
2019-03-08T00:05:06.791Z,67.74
2019-03-08T00:07:35.456Z,67.60
2019-03-08T00:10:04.576Z,66.91
2019-03-08T00:12:33.250Z,67.06
2019-03-08T00:15:01.653Z,67.37
2019-03-08T00:17:30.167Z,67.52
2019-03-08T00:19:58.518Z,67.38
2019-03-08T00:22:27.084Z,66.99
2019-03-08T00:24:55.474Z,67.23
2019-03-08T00:27:23.856Z,67.38
2019-03-08T00:29:52.325Z,67.08
2019-03-08T00:32:20.711Z,67.17
2019-03-08T00:34:49.105Z,67.41
2019-03-08T00:37:17.771Z,67.32
2019-03-08T00:39:46.156Z,67.95
2019-03-08T00:42:14.556Z,68.39
2019-03-08T00:44:42.940Z,67.69
2019-03-08T00:47:11.327Z,68.02
2019-03-08T00:49:39.721Z,67.93
2019-03-08T00:52:08.738Z,68.05
2019-03-08T00:54:37.143Z,68.03
2019-03-08T00:57:05.678Z,68.82
2019-03-08T00:59:34.386Z,68.66
2019-03-08T01:02:02.768Z,68.46
2019-03-08T01:04:31.449Z,68.53
2019-03-08T01:07:00.048Z,68.30
2019-03-08T01:09:28.436Z,68.02
2019-03-08T01:11:56.992Z,68.55
2019-03-08T01:14:25.390Z,68.88
2019-03-08T01:16:53.835Z,69.01
2019-03-08T01:19:22.244Z,68.90
2019-03-08T01:21:50.628Z,68.66
2019-03-08T01:24:19.288Z,68.89
2019-03-08T01:26:47.685Z,69.35
2019-03-08T01:29:16.077Z,68.95
2019-03-08T01:31:44.543Z,69.46
2019-03-08T01:34:12.934Z,69.11
2019-03-08T01:36:42.642Z,68.92
2019-03-08T01:39:12.747Z,69.53
2019-03-08T01:41:41.126Z,69.45
2019-03-08T01:44:09.923Z,69.35
2019-03-08T01:46:38.311Z,68.98
2019-03-08T01:49:06.958Z,69.50
2019-03-08T01:51:35.536Z,69.66
2019-03-08T01:54:03.919Z,69.66
2019-03-08T01:56:32.334Z,69.60
2019-03-08T01:59:00.721Z,69.73
2019-03-08T02:01:29.186Z,69.85
2019-03-08T02:03:57.583Z,69.73
2019-03-08T02:06:26.043Z,70.22
2019-03-08T02:08:54.517Z,70.30
2019-03-08T02:11:22.908Z,69.59
2019-03-08T02:13:51.551Z,69.71
2019-03-08T02:16:19.950Z,70.53
2019-03-08T02:18:48.349Z,69.96
2019-03-08T02:21:17.060Z,69.72
2019-03-08T02:23:45.434Z,69.93
2019-03-08T02:26:13.827Z,70.07
2019-03-08T02:28:42.222Z,70.03
2019-03-08T02:31:10.678Z,70.36
2019-03-08T02:33:39.092Z,70.50
2019-03-08T02:36:07.776Z,70.64
2019-03-08T02:38:36.471Z,70.58
2019-03-08T02:41:04.939Z,70.98
2019-03-08T02:43:33.319Z,70.70
2019-03-08T02:46:01.741Z,70.98
2019-03-08T02:48:30.137Z,71.09
2019-03-08T02:50:58.796Z,70.86
2019-03-08T02:53:27.179Z,71.18
2019-03-08T02:55:55.566Z,71.25
2019-03-08T02:58:24.280Z,70.91
2019-03-08T03:00:52.670Z,72.25
2019-03-08T03:03:21.123Z,72.95
2019-03-08T03:05:49.800Z,73.08
2019-03-08T03:08:18.185Z,72.89
2019-03-08T03:10:46.586Z,73.83
2019-03-08T03:13:14.976Z,73.98
2019-03-08T03:15:43.360Z,75.24
2019-03-08T03:18:12.714Z,75.01
2019-03-08T03:20:41.275Z,75.08
2019-03-08T03:23:09.663Z,75.39
2019-03-08T03:25:38.066Z,76.06
2019-03-08T03:28:06.495Z,76.46
2019-03-08T03:30:34.847Z,76.88
2019-03-08T03:33:03.247Z,76.88
2019-03-08T03:35:31.716Z,76.48
2019-03-08T03:38:00.098Z,76.80
2019-03-08T03:40:28.496Z,76.30
2019-03-08T03:42:56.887Z,77.03
2019-03-08T03:45:25.373Z,76.37
2019-03-08T03:47:53.825Z,76.80
2019-03-08T03:50:22.496Z,76.47
2019-03-08T03:52:50.878Z,76.35
2019-03-08T03:55:19.263Z,76.42
2019-03-08T03:57:47.718Z,76.60
2019-03-08T04:00:23.943Z,76.00
2019-03-08T04:02:52.611Z,76.22
2019-03-08T04:05:21.146Z,76.38
2019-03-08T04:07:49.542Z,76.36
2019-03-08T04:10:18.474Z,76.07
2019-03-08T04:12:46.954Z,75.28
2019-03-08T04:15:22.057Z,75.31
2019-03-08T04:17:50.443Z,75.25
2019-03-08T04:20:20.173Z,75.67
2019-03-08T04:22:48.562Z,75.30
2019-03-08T04:25:16.981Z,75.72
2019-03-08T04:27:45.350Z,75.82
2019-03-08T04:30:22.657Z,75.17
2019-03-08T04:32:51.031Z,74.81
2019-03-08T04:35:19.417Z,74.89
2019-03-08T04:37:47.809Z,75.37
2019-03-08T04:40:16.279Z,75.00
2019-03-08T04:42:44.738Z,74.96
2019-03-08T04:45:15.008Z,74.49
2019-03-08T04:47:43.459Z,74.78
2019-03-08T04:50:15.897Z,75.15
2019-03-08T04:52:44.343Z,74.45
2019-03-08T04:55:18.784Z,74.12
2019-03-08T04:57:47.458Z,74.65
2019-03-08T05:00:17.787Z,74.75
2019-03-08T05:02:46.176Z,74.49
2019-03-08T05:05:14.562Z,74.39
2019-03-08T05:07:43.028Z,74.74
2019-03-08T05:10:18.864Z,75.12
2019-03-08T05:12:47.259Z,75.86
2019-03-08T05:15:16.200Z,76.35
2019-03-08T05:17:44.587Z,76.89
2019-03-08T05:20:13.072Z,76.72
2019-03-08T05:22:41.519Z,77.21
2019-03-08T05:25:14.129Z,77.32
2019-03-08T05:27:42.539Z,77.14
2019-03-08T05:30:15.129Z,78.02
2019-03-08T05:32:43.507Z,78.03
2019-03-08T05:35:13.037Z,78.12
2019-03-08T05:37:41.411Z,78.43
2019-03-08T05:40:13.034Z,78.66
2019-03-08T05:42:41.704Z,78.94
2019-03-08T05:45:11.832Z,78.45
2019-03-08T05:47:40.253Z,77.81
2019-03-08T05:50:12.644Z,78.52
2019-03-08T05:52:41.684Z,78.25
2019-03-08T05:55:11.223Z,78.82
2019-03-08T05:57:39.671Z,78.67
2019-03-08T06:00:14.512Z,77.77
2019-03-08T06:02:42.918Z,78.04
2019-03-08T06:05:11.381Z,78.13
2019-03-08T06:07:39.921Z,78.18
2019-03-08T06:10:26.664Z,77.94
2019-03-08T06:12:55.116Z,77.26
2019-03-08T06:15:24.017Z,77.74
2019-03-08T06:17:52.660Z,77.64
2019-03-08T06:20:21.112Z,77.77
2019-03-08T06:22:49.513Z,77.64
2019-03-08T06:25:17.977Z,77.46
2019-03-08T06:27:46.358Z,77.78
2019-03-08T06:30:15.089Z,77.93
2019-03-08T06:32:43.471Z,77.57
2019-03-08T06:35:12.184Z,77.95
2019-03-08T06:37:40.636Z,77.65
2019-03-08T06:40:15.774Z,77.81
2019-03-08T06:42:44.163Z,77.53
2019-03-08T06:45:18.825Z,77.51
2019-03-08T06:47:47.483Z,77.39
2019-03-08T06:50:16.412Z,77.09
2019-03-08T06:52:44.930Z,77.17
2019-03-08T06:55:15.436Z,77.20
2019-03-08T06:57:43.803Z,76.84
2019-03-08T07:00:26.412Z,76.60
2019-03-08T07:02:54.809Z,76.60
2019-03-08T07:05:23.220Z,76.88
2019-03-08T07:07:51.604Z,76.03
2019-03-08T07:10:19.993Z,76.52
2019-03-08T07:12:48.760Z,76.33
2019-03-08T07:15:17.416Z,76.86
2019-03-08T07:17:45.803Z,77.50
2019-03-08T07:20:15.830Z,77.14
2019-03-08T07:23:01.747Z,77.68
2019-03-08T07:25:52.435Z,77.54
2019-03-08T07:28:19.902Z,78.50
2019-03-08T07:31:06.115Z,77.99
2019-03-08T07:33:36.424Z,77.81
2019-03-08T07:36:24.994Z,77.79
2019-03-08T07:38:57.689Z,77.75
2019-03-08T07:41:39.450Z,77.83
2019-03-08T07:44:09.484Z,77.73
2019-03-08T07:46:51.523Z,77.35
2019-03-08T07:49:22.412Z,78.19
2019-03-08T07:51:52.696Z,77.76
2019-03-08T07:54:22.718Z,78.23
2019-03-08T07:56:58.741Z,78.89
2019-03-08T07:59:34.405Z,79.43
2019-03-08T08:02:19.509Z,80.63
2019-03-08T08:04:55.373Z,79.99
2019-03-08T08:07:28.387Z,79.45
2019-03-08T08:10:01.344Z,79.69
2019-03-08T08:12:31.356Z,79.73
2019-03-08T08:15:04.370Z,80.50
2019-03-08T08:17:34.393Z,80.61
2019-03-08T08:20:04.433Z,80.48
2019-03-08T08:22:34.455Z,80.23
2019-03-08T08:25:16.578Z,80.78
2019-03-08T08:27:52.083Z,80.95
2019-03-08T08:30:25.324Z,81.78
2019-03-08T08:32:55.341Z,83.82
2019-03-08T08:35:42.559Z,84.12
2019-03-08T08:38:27.623Z,83.71
2019-03-08T08:41:10.444Z,83.33
2019-03-08T08:43:52.680Z,84.71
2019-03-08T08:46:29.013Z,83.13
2019-03-08T08:49:11.199Z,82.15
2019-03-08T08:51:41.300Z,83.67
2019-03-08T08:54:11.324Z,80.67
2019-03-08T08:56:57.024Z,80.29
2019-03-08T08:59:41.947Z,79.09
2019-03-08T09:02:17.712Z,80.49
2019-03-08T09:04:47.754Z,79.21
2019-03-08T09:07:17.952Z,81.41
2019-03-08T09:10:04.456Z,78.98
2019-03-08T09:12:39.950Z,80.89
2019-03-08T09:15:13.029Z,87.17
2019-03-08T09:17:43.062Z,89.56
2019-03-08T09:20:15.817Z,86.83
2019-03-08T09:22:48.240Z,89.93
2019-03-08T09:25:18.587Z,87.43
2019-03-08T09:27:48.971Z,88.61
2019-03-08T09:30:19.126Z,88.64
2019-03-08T09:33:05.764Z,89.22
2019-03-08T09:35:42.088Z,90.39
2019-03-08T09:38:15.026Z,88.97
2019-03-08T09:41:01.681Z,89.45
2019-03-08T09:43:34.639Z,88.71
2019-03-08T09:46:10.700Z,87.36
2019-03-08T09:48:49.766Z,87.54
2019-03-08T09:51:23.088Z,87.90
2019-03-08T09:53:53.113Z,89.39
2019-03-08T09:56:26.092Z,89.67
2019-03-08T09:58:56.124Z,89.38
2019-03-08T10:01:41.117Z,90.93
2019-03-08T10:04:20.087Z,91.06
2019-03-08T10:06:56.329Z,90.14
2019-03-08T10:09:42.519Z,85.82
2019-03-08T10:12:18.238Z,80.46
2019-03-08T10:14:54.067Z,80.35
2019-03-08T10:17:35.853Z,75.21
2019-03-08T10:20:11.369Z,75.86
2019-03-08T10:22:44.764Z,71.32
2019-03-08T10:25:15.189Z,71.38
2019-03-08T10:28:01.891Z,70.22
2019-03-08T10:30:34.606Z,70.28
2019-03-08T10:33:13.377Z,72.14
2019-03-08T10:35:43.420Z,70.26
2019-03-08T10:38:31.534Z,70.48
2019-03-08T10:41:04.475Z,71.04
2019-03-08T10:43:52.245Z,71.42
2019-03-08T10:46:38.510Z,73.14
2019-03-08T10:49:14.319Z,72.67
2019-03-08T10:51:47.101Z,74.39
2019-03-08T10:54:17.131Z,73.80
2019-03-08T10:56:53.197Z,72.43
2019-03-08T10:59:28.909Z,73.86
2019-03-08T11:02:15.059Z,73.62
2019-03-08T11:04:45.366Z,73.62
2019-03-08T11:07:18.371Z,73.19
2019-03-08T11:09:53.954Z,73.57
2019-03-08T11:12:26.415Z,73.67
2019-03-08T11:15:12.635Z,74.16
2019-03-08T11:17:51.078Z,74.86
2019-03-08T11:20:26.090Z,75.91
2019-03-08T11:22:58.646Z,76.88
2019-03-08T11:25:35.255Z,77.28
2019-03-08T11:28:08.365Z,78.65
2019-03-08T11:30:44.140Z,80.11
2019-03-08T11:33:22.999Z,79.92
2019-03-08T11:35:53.041Z,76.79
2019-03-08T11:38:25.765Z,78.03
2019-03-08T11:41:14.638Z,79.23
2019-03-08T11:43:50.465Z,77.59
2019-03-08T11:46:20.712Z,75.63
2019-03-08T11:48:51.056Z,77.69
2019-03-08T11:51:21.087Z,76.45
2019-03-08T11:53:56.754Z,77.54
2019-03-08T11:56:44.791Z,76.55
2019-03-08T11:59:21.274Z,75.32
2019-03-08T12:02:07.201Z,75.78
2019-03-08T12:04:40.841Z,76.21
2019-03-08T12:07:11.071Z,74.48
2019-03-08T12:09:49.633Z,73.59
2019-03-08T12:12:23.065Z,70.87
2019-03-08T12:14:53.107Z,67.90
2019-03-08T12:17:39.521Z,67.97
2019-03-08T12:20:12.244Z,70.19
2019-03-08T12:22:54.510Z,70.25
2019-03-08T12:25:33.819Z,70.67
2019-03-08T12:28:15.572Z,68.01
2019-03-08T12:30:55.010Z,65.32
2019-03-08T12:33:36.815Z,67.11
2019-03-08T12:36:23.263Z,66.04
2019-03-08T12:38:55.948Z,69.67
2019-03-08T12:41:43.058Z,67.82
2019-03-08T12:44:13.095Z,64.42
2019-03-08T12:46:59.736Z,61.94
2019-03-08T12:49:45.940Z,63.68
2019-03-08T12:52:19.059Z,64.26
2019-03-08T12:55:05.202Z,62.69
2019-03-08T12:57:50.909Z,61.71
2019-03-08T13:00:38.265Z,59.57
2019-03-08T13:03:20.569Z,56.59
2019-03-08T13:06:02.264Z,58.28
2019-03-08T13:08:41.052Z,59.34
2019-03-08T13:11:09.733Z,61.32
2019-03-08T13:13:38.135Z,59.12
2019-03-08T13:16:06.588Z,60.58
2019-03-08T13:18:34.991Z,61.44
2019-03-08T13:21:03.386Z,61.45
2019-03-08T13:23:32.063Z,64.19
2019-03-08T13:26:00.463Z,63.51
2019-03-08T13:28:29.232Z,63.60
2019-03-08T13:30:57.681Z,65.31
2019-03-08T13:33:26.073Z,65.47
2019-03-08T13:35:54.450Z,65.74
2019-03-08T13:38:22.857Z,66.37
2019-03-08T13:40:51.514Z,65.78
2019-03-08T13:43:19.923Z,64.03
2019-03-08T13:45:48.320Z,66.56
2019-03-08T13:48:16.707Z,66.16
2019-03-08T13:50:45.129Z,67.61
2019-03-08T13:53:13.796Z,65.22
2019-03-08T13:55:42.180Z,63.84
2019-03-08T13:58:11.094Z,64.40
2019-03-08T14:00:39.772Z,64.83
2019-03-08T14:03:08.157Z,62.44
2019-03-08T14:05:36.843Z,62.35
2019-03-08T14:08:05.303Z,62.64
2019-03-08T14:10:33.683Z,63.98
2019-03-08T14:13:02.125Z,63.47
2019-03-08T14:15:30.517Z,62.98
2019-03-08T14:17:58.902Z,61.78
2019-03-08T14:20:29.049Z,61.59
2019-03-08T14:22:57.449Z,60.04
2019-03-08T14:25:25.841Z,61.06
2019-03-08T14:27:54.643Z,60.74
2019-03-08T14:30:27.872Z,61.23
2019-03-08T14:32:58.047Z,60.23
2019-03-08T14:35:29.668Z,59.12
2019-03-08T14:37:57.105Z,57.63
2019-03-08T14:40:27.225Z,58.84
2019-03-08T14:43:17.771Z,62.12
2019-03-08T14:45:47.938Z,65.55
2019-03-08T14:48:16.333Z,66.39
2019-03-08T14:50:44.797Z,65.44
2019-03-08T14:53:13.461Z,66.92
2019-03-08T14:55:41.846Z,67.05
2019-03-08T14:58:10.263Z,67.55
2019-03-08T15:00:38.718Z,66.92
2019-03-08T15:03:07.112Z,66.85
2019-03-08T15:05:35.523Z,66.81
2019-03-08T15:08:03.981Z,69.24
2019-03-08T15:10:39.114Z,65.54
2019-03-08T15:13:02.528Z,65.77
2019-03-08T15:15:30.988Z,63.50
2019-03-08T15:17:59.368Z,63.70
2019-03-08T15:20:27.846Z,62.42
2019-03-08T15:22:56.231Z,64.79
2019-03-08T15:25:24.955Z,65.98
2019-03-08T15:27:53.441Z,63.45
2019-03-08T15:30:21.832Z,63.40
2019-03-08T15:32:50.224Z,63.65
2019-03-08T15:35:19.068Z,65.14
2019-03-08T15:37:47.518Z,64.28
2019-03-08T15:40:23.765Z,64.98
2019-03-08T15:42:52.228Z,64.37
2019-03-08T15:45:20.619Z,64.20
2019-03-08T15:47:49.729Z,64.83
2019-03-08T15:50:19.601Z,65.84
2019-03-08T15:52:47.998Z,66.60
2019-03-08T15:55:17.619Z,64.79
2019-03-08T15:57:46.009Z,65.57
2019-03-08T16:00:17.213Z,64.30
2019-03-08T16:02:45.728Z,63.57
2019-03-08T16:05:15.670Z,63.79
2019-03-08T16:07:44.213Z,64.72
2019-03-08T16:10:20.429Z,64.67
2019-03-08T16:12:48.889Z,65.08
2019-03-08T16:15:17.639Z,64.94
2019-03-08T16:17:46.089Z,66.43
2019-03-08T16:20:16.389Z,65.96
2019-03-08T16:22:44.840Z,65.60
2019-03-08T16:25:15.139Z,65.49
2019-03-08T16:27:45.271Z,65.91
2019-03-08T16:30:32.799Z,66.09
2019-03-08T16:33:11.734Z,66.34
2019-03-08T16:35:41.605Z,66.79
2019-03-08T16:38:11.377Z,67.48
2019-03-08T16:40:53.514Z,67.34
2019-03-08T16:43:42.131Z,68.33
2019-03-08T16:46:21.761Z,67.18
2019-03-08T16:48:56.983Z,67.05
2019-03-08T16:51:30.421Z,66.85
2019-03-08T16:54:01.170Z,67.64
2019-03-08T16:56:37.391Z,66.68
2019-03-08T16:59:13.669Z,67.00
2019-03-08T17:01:52.721Z,68.14
2019-03-08T17:04:23.050Z,67.02
2019-03-08T17:06:53.082Z,67.66
2019-03-08T17:09:29.055Z,68.33
2019-03-08T17:11:59.093Z,66.73
2019-03-08T17:14:35.101Z,66.75
2019-03-08T17:17:08.252Z,66.45
2019-03-08T17:19:50.311Z,66.76
2019-03-08T17:22:20.344Z,67.40
2019-03-08T17:24:50.377Z,68.37
2019-03-08T17:27:29.176Z,68.55
2019-03-08T17:30:02.170Z,68.93
2019-03-08T17:32:38.238Z,69.31
2019-03-08T17:35:27.161Z,69.82
2019-03-08T17:38:06.027Z,70.64
2019-03-08T17:40:41.806Z,69.91
2019-03-08T17:43:29.992Z,70.67
2019-03-08T17:46:06.031Z,70.64
2019-03-08T17:48:41.755Z,70.97
2019-03-08T17:51:14.631Z,70.18
2019-03-08T17:53:59.778Z,69.16
2019-03-08T17:56:45.993Z,69.53
2019-03-08T17:59:31.085Z,69.80
2019-03-08T18:02:04.110Z,69.93
2019-03-08T18:04:40.129Z,68.90
2019-03-08T18:07:16.694Z,69.56
2019-03-08T18:09:52.739Z,69.60
2019-03-08T18:12:38.976Z,69.51
2019-03-08T18:15:10.450Z,69.17
2019-03-08T18:17:43.395Z,69.18
2019-03-08T18:20:13.766Z,69.54
2019-03-08T18:22:43.791Z,70.45
2019-03-08T18:25:16.752Z,71.21
2019-03-08T18:27:46.825Z,71.14
2019-03-08T18:30:37.146Z,71.71
2019-03-08T18:33:13.398Z,71.92
2019-03-08T18:35:46.375Z,72.39
2019-03-08T18:38:16.396Z,72.90
2019-03-08T18:40:51.963Z,72.71
2019-03-08T18:43:38.318Z,73.23
2019-03-08T18:46:08.372Z,73.58
2019-03-08T18:48:40.847Z,74.12
2019-03-08T18:51:19.660Z,74.15
2019-03-08T18:53:49.688Z,74.58
2019-03-08T18:56:25.914Z,74.35
2019-03-08T18:58:55.942Z,73.84
2019-03-08T19:01:31.705Z,74.57
2019-03-08T19:04:07.493Z,74.33
2019-03-08T19:06:38.978Z,74.92
2019-03-08T19:09:09.480Z,75.02
2019-03-08T19:11:39.657Z,75.65
2019-03-08T19:14:09.725Z,75.71
2019-03-08T19:16:40.105Z,75.52
2019-03-08T19:19:15.960Z,75.94
2019-03-08T19:21:48.678Z,75.07
2019-03-08T19:24:33.778Z,75.37
2019-03-08T19:27:09.840Z,74.81
2019-03-08T19:29:49.007Z,74.80
2019-03-08T19:32:19.033Z,74.67
2019-03-08T19:34:49.052Z,74.17
2019-03-08T19:37:27.658Z,74.05
2019-03-08T19:40:03.468Z,72.83
2019-03-08T19:42:33.517Z,73.17
2019-03-08T19:45:22.026Z,73.80
2019-03-08T19:47:57.804Z,72.72
2019-03-08T19:50:27.840Z,72.22
2019-03-08T19:53:00.817Z,70.70
2019-03-08T19:55:31.685Z,70.30
2019-03-08T19:58:04.776Z,68.99
2019-03-08T20:00:37.473Z,67.95
2019-03-08T20:03:10.242Z,68.01
2019-03-08T20:05:40.267Z,68.05
2019-03-08T20:08:22.415Z,68.16
2019-03-08T20:10:58.185Z,68.00
2019-03-08T20:13:43.499Z,67.25
2019-03-08T20:16:30.093Z,67.15
2019-03-08T20:19:00.149Z,66.72
2019-03-08T20:21:36.176Z,66.57
2019-03-08T20:24:06.889Z,66.89
2019-03-08T20:26:39.669Z,66.68
2019-03-08T20:29:12.597Z,66.02
2019-03-08T20:31:48.613Z,66.38
2019-03-08T20:34:18.663Z,66.53
2019-03-08T20:36:54.720Z,65.73
2019-03-08T20:39:27.892Z,65.71
2019-03-08T20:41:57.915Z,66.04
2019-03-08T20:44:33.944Z,65.67
2019-03-08T20:47:10.006Z,65.99
2019-03-08T20:49:38.424Z,65.50
2019-03-08T20:52:06.882Z,65.31
2019-03-08T20:54:35.829Z,65.32
2019-03-08T20:57:04.513Z,65.78
2019-03-08T20:59:32.901Z,65.36
2019-03-08T21:02:01.311Z,65.26
2019-03-08T21:04:29.693Z,65.72
2019-03-08T21:06:58.082Z,65.91
2019-03-08T21:09:26.958Z,66.14
2019-03-08T21:11:55.346Z,66.11
2019-03-08T21:14:23.736Z,65.89
2019-03-08T21:16:52.162Z,65.79
2019-03-08T21:19:20.545Z,64.90
2019-03-08T21:21:49.106Z,65.02
2019-03-08T21:24:17.514Z,65.68
2019-03-08T21:26:45.903Z,65.60
2019-03-08T21:29:14.284Z,65.75
2019-03-08T21:31:42.747Z,66.37
2019-03-08T21:34:11.141Z,65.26
2019-03-08T21:36:39.517Z,65.21
2019-03-08T21:39:07.999Z,65.35
2019-03-08T21:41:36.390Z,64.87
2019-03-08T21:44:04.847Z,65.24
2019-03-08T21:46:33.240Z,65.17
2019-03-08T21:49:01.636Z,64.77
2019-03-08T21:51:30.012Z,65.18
2019-03-08T21:53:58.785Z,65.70
2019-03-08T21:56:27.171Z,65.45
2019-03-08T21:58:56.385Z,65.33
2019-03-08T22:01:24.792Z,65.40
2019-03-08T22:04:00.240Z,65.34
2019-03-08T22:06:29.612Z,65.30
2019-03-08T22:09:05.628Z,65.95
2019-03-08T22:11:39.653Z,66.19
2019-03-08T22:14:08.452Z,65.72
2019-03-08T22:16:36.922Z,65.54
2019-03-08T22:19:05.585Z,65.59
2019-03-08T22:21:33.963Z,65.86
2019-03-08T22:24:02.438Z,65.47
2019-03-08T22:26:31.021Z,65.50
2019-03-08T22:28:59.399Z,65.67
2019-03-08T22:31:27.810Z,65.62
2019-03-08T22:33:56.205Z,65.58
2019-03-08T22:36:24.599Z,65.20
2019-03-08T22:38:53.007Z,65.43
2019-03-08T22:41:21.392Z,64.98
2019-03-08T22:43:49.783Z,64.95
2019-03-08T22:46:18.176Z,65.20
2019-03-08T22:48:46.570Z,65.03
2019-03-08T22:51:14.982Z,65.79
2019-03-08T22:53:43.759Z,65.56
2019-03-08T22:56:12.151Z,65.64
2019-03-08T22:58:40.569Z,65.26
2019-03-08T23:01:10.655Z,65.06
2019-03-08T23:03:39.042Z,64.86
2019-03-08T23:06:07.504Z,65.67
2019-03-08T23:08:35.891Z,64.97
2019-03-08T23:11:04.446Z,65.47
2019-03-08T23:13:32.837Z,64.99
2019-03-08T23:16:01.224Z,64.79
2019-03-08T23:18:29.928Z,65.31
2019-03-08T23:20:58.821Z,65.01
2019-03-08T23:23:27.196Z,64.80
2019-03-08T23:25:55.607Z,64.87
2019-03-08T23:28:25.643Z,64.33
2019-03-08T23:30:55.663Z,65.01
2019-03-08T23:33:24.702Z,65.18
2019-03-08T23:35:53.099Z,64.62
2019-03-08T23:38:21.476Z,64.91
2019-03-08T23:40:49.871Z,65.10
2019-03-08T23:43:18.255Z,64.83
2019-03-08T23:45:46.667Z,66.79
2019-03-08T23:48:15.300Z,66.64
2019-03-08T23:50:43.699Z,66.68
2019-03-08T23:53:12.095Z,66.64
2019-03-08T23:55:40.484Z,65.93
2019-03-08T23:58:08.859Z,66.99
